Terminal Aerodrome Forecast
Issued by NWS Pittsburgh, PA

Current Version | Previous Version | Graphics & Text | Print | Product List | Glossary On
Versions: 1 2 3 4 5 6 7 8 9 10 11 12 13 14 15 16 17 18 19 20 21 22 23 24 25 26 27 28 29
000
FTUS41 KPBZ 190500
TAFPIT
TAF
KPIT 190539Z 1906/2012 24008KT P6SM FEW025 BKN100
     FM191700 20011G18KT P6SM OVC050 PROB30 1917/1918 4SM -SN OVC025
     FM200100 18011KT P6SM BKN035 OVC100
     FM200300 18009KT 4SM -SN BKN025=

USA.gov is the U.S. government's official web portal to all federal, state and local government web resources and services.